createdAt,value
2022-10-31T00:01:19.200Z,0.95
2022-10-31T00:03:46.653Z,2.88
2022-10-31T00:06:13.593Z,1.20
2022-10-31T00:08:40.564Z,0.90
2022-10-31T00:11:11.549Z,1.20
2022-10-31T00:13:38.678Z,1.23
2022-10-31T00:16:06.157Z,1.27
2022-10-31T00:18:33.058Z,1.50
2022-10-31T00:21:04.587Z,5.40
2022-10-31T00:23:31.544Z,1.05
2022-10-31T00:26:03.087Z,1.80
2022-10-31T00:28:31.742Z,1.83
2022-10-31T00:31:07.389Z,1.23
2022-10-31T00:33:35.932Z,2.08
2022-10-31T00:36:02.859Z,2.13
2022-10-31T00:38:30.094Z,0.98
2022-10-31T00:40:56.981Z,0.50
2022-10-31T00:43:24.735Z,1.63
2022-10-31T00:45:52.112Z,1.08
2022-10-31T00:48:18.936Z,3.95
2022-10-31T00:50:46.386Z,1.95
2022-10-31T00:53:13.253Z,1.05
2022-10-31T00:55:40.145Z,1.10
2022-10-31T00:58:07.132Z,1.50
2022-10-31T01:00:34.182Z,1.58
2022-10-31T01:03:01.333Z,0.88
2022-10-31T01:05:28.610Z,2.20
2022-10-31T01:07:55.510Z,2.38
2022-10-31T01:10:22.688Z,1.40
2022-10-31T01:12:50.410Z,1.50
2022-10-31T01:15:22.585Z,1.38
2022-10-31T01:17:50.092Z,1.45
2022-10-31T01:20:18.573Z,1.92
2022-10-31T01:22:45.778Z,2.33
2022-10-31T01:25:12.805Z,0.95
2022-10-31T01:27:39.748Z,1.20
2022-10-31T01:30:07.152Z,0.60
2022-10-31T01:32:34.037Z,0.70
2022-10-31T01:35:00.954Z,2.42
2022-10-31T01:37:27.845Z,1.08
2022-10-31T01:39:54.696Z,2.22
2022-10-31T01:42:23.668Z,1.10
2022-10-31T01:44:57.922Z,1.63
2022-10-31T01:47:36.357Z,2.53
2022-10-31T01:50:07.741Z,0.88
2022-10-31T01:52:40.808Z,1.30
2022-10-31T01:55:07.788Z,1.98
2022-10-31T01:57:37.316Z,0.85
2022-10-31T02:00:09.233Z,0.50
2022-10-31T02:02:36.900Z,1.95
2022-10-31T02:05:08.191Z,2.35
2022-10-31T02:10:14.212Z,1.80
2022-10-31T02:12:42.387Z,1.48
2022-10-31T02:15:10.488Z,1.17
2022-10-31T02:17:37.345Z,1.25
2022-10-31T02:20:22.845Z,1.15
2022-10-31T02:23:08.010Z,1.73
2022-10-31T02:25:59.371Z,1.88
2022-10-31T02:31:14.224Z,1.00
2022-10-31T02:33:48.209Z,2.25
2022-10-31T02:36:33.552Z,0.40
2022-10-31T02:39:32.386Z,1.33
2022-10-31T02:42:02.133Z,1.85
2022-10-31T02:44:41.052Z,1.13
2022-10-31T02:47:15.044Z,1.00
2022-10-31T02:49:46.763Z,2.70
2022-10-31T02:52:34.737Z,0.90
2022-10-31T02:55:26.486Z,1.95
2022-10-31T02:57:58.637Z,1.20
2022-10-31T03:00:26.151Z,0.75
2022-10-31T03:03:14.813Z,1.95
2022-10-31T03:06:10.280Z,1.13
2022-10-31T03:08:43.721Z,1.02
2022-10-31T03:11:11.236Z,1.48
2022-10-31T03:13:49.994Z,2.42
2022-10-31T03:16:46.806Z,1.17
2022-10-31T03:19:36.684Z,0.98
2022-10-31T03:22:05.999Z,1.40
2022-10-31T03:24:37.027Z,0.82
2022-10-31T03:27:06.819Z,1.10
2022-10-31T03:29:38.132Z,0.80
2022-10-31T03:32:11.072Z,1.80
2022-10-31T03:34:41.123Z,1.90
2022-10-31T03:37:12.080Z,1.45
2022-10-31T03:39:42.125Z,1.33
2022-10-31T03:42:27.129Z,2.22
2022-10-31T03:45:20.038Z,3.10
2022-10-31T03:47:47.005Z,2.60
2022-10-31T03:50:17.074Z,1.70
2022-10-31T03:52:55.277Z,2.95
2022-10-31T03:55:53.869Z,0.88
2022-10-31T03:58:27.188Z,2.08
2022-10-31T04:00:57.016Z,2.45
2022-10-31T04:03:28.001Z,1.60
2022-10-31T04:05:58.392Z,1.23
2022-10-31T04:08:29.689Z,1.20
2022-10-31T04:10:59.025Z,1.88
2022-10-31T04:13:30.333Z,3.08
2022-10-31T04:15:57.714Z,2.22
2022-10-31T04:18:25.394Z,3.05
2022-10-31T04:21:05.326Z,1.15
2022-10-31T04:23:33.542Z,1.88
2022-10-31T04:26:00.473Z,2.17
2022-10-31T04:28:27.449Z,2.20
2022-10-31T04:30:54.630Z,1.88
2022-10-31T04:33:21.735Z,1.70
2022-10-31T04:35:48.628Z,1.50
2022-10-31T04:38:15.554Z,1.15
2022-10-31T04:40:42.426Z,1.55
2022-10-31T04:43:09.395Z,3.17
2022-10-31T04:45:36.243Z,2.05
2022-10-31T04:48:03.364Z,0.85
2022-10-31T04:50:30.564Z,0.90
2022-10-31T04:52:57.507Z,1.73
2022-10-31T04:55:24.339Z,0.70
2022-10-31T04:57:52.045Z,0.82
2022-10-31T05:00:21.180Z,3.00
2022-10-31T05:02:49.424Z,2.97
2022-10-31T05:05:17.802Z,1.17
2022-10-31T05:07:46.793Z,2.08
2022-10-31T05:10:15.840Z,0.93
2022-10-31T05:12:50.969Z,1.38
2022-10-31T05:15:19.159Z,1.42
2022-10-31T05:17:46.270Z,1.13
2022-10-31T05:20:15.235Z,1.25
2022-10-31T05:22:50.505Z,1.00
2022-10-31T05:25:19.280Z,3.30
2022-10-31T05:27:48.209Z,1.88
2022-10-31T05:30:18.032Z,1.27
2022-10-31T05:32:47.127Z,2.17
2022-10-31T05:35:16.871Z,1.60
2022-10-31T05:37:43.849Z,2.40
2022-10-31T05:40:13.428Z,1.60
2022-10-31T05:42:41.695Z,0.88
2022-10-31T05:45:13.559Z,1.90
2022-10-31T05:47:40.413Z,1.92
2022-10-31T05:50:08.429Z,1.75
2022-10-31T05:52:35.329Z,4.90
2022-10-31T05:55:02.300Z,2.05
2022-10-31T05:57:30.321Z,2.95
2022-10-31T05:59:57.162Z,1.58
2022-10-31T06:02:24.013Z,3.08
2022-10-31T06:04:51.037Z,5.53
2022-10-31T06:07:18.027Z,3.97
2022-10-31T06:09:44.901Z,5.20
2022-10-31T06:12:11.785Z,3.45
2022-10-31T06:14:38.674Z,3.92
2022-10-31T06:17:05.535Z,3.28
2022-10-31T06:19:32.417Z,1.60
2022-10-31T06:21:59.237Z,4.72
2022-10-31T06:24:26.103Z,1.58
2022-10-31T06:26:52.995Z,1.20
2022-10-31T06:29:19.965Z,2.65
2022-10-31T06:31:46.787Z,2.55
2022-10-31T06:34:13.661Z,5.72
2022-10-31T06:36:40.509Z,2.92
2022-10-31T06:39:07.511Z,2.45
2022-10-31T06:41:34.411Z,4.93
2022-10-31T06:44:04.991Z,5.13
2022-10-31T06:46:35.263Z,1.75
2022-10-31T06:49:02.136Z,5.07
2022-10-31T06:51:28.997Z,2.22
2022-10-31T06:53:55.872Z,3.65
2022-10-31T06:56:22.751Z,4.50
2022-10-31T06:58:49.610Z,2.95
2022-10-31T07:01:16.638Z,3.75
2022-10-31T07:03:43.686Z,3.53
2022-10-31T07:06:10.621Z,1.95
2022-10-31T07:08:37.645Z,3.97
2022-10-31T07:11:04.557Z,2.85
2022-10-31T07:13:31.447Z,6.55
2022-10-31T07:16:03.743Z,3.08
2022-10-31T07:18:31.094Z,2.83
2022-10-31T07:20:58.112Z,6.28
2022-10-31T07:23:25.045Z,14.38
2022-10-31T07:25:57.418Z,7.80
2022-10-31T07:28:24.663Z,4.93
2022-10-31T07:30:53.252Z,6.30
2022-10-31T07:33:20.542Z,6.28
2022-10-31T07:35:47.666Z,2.25
2022-10-31T07:38:15.825Z,4.70
2022-10-31T07:40:43.579Z,5.85
2022-10-31T07:43:14.590Z,6.32
2022-10-31T07:45:41.976Z,5.30
2022-10-31T07:48:08.907Z,5.60
2022-10-31T07:50:36.179Z,5.47
2022-10-31T07:53:09.131Z,6.75
2022-10-31T07:55:36.720Z,7.13
2022-10-31T07:58:06.354Z,5.25
2022-10-31T08:00:35.972Z,3.10
2022-10-31T08:03:08.594Z,2.50
2022-10-31T08:05:36.736Z,5.45
2022-10-31T08:08:05.189Z,3.75
2022-10-31T08:10:32.857Z,3.38
2022-10-31T08:13:09.215Z,3.90
2022-10-31T08:15:39.257Z,5.07
2022-10-31T08:18:07.210Z,2.63
2022-10-31T08:20:34.653Z,2.42
2022-10-31T08:23:04.395Z,5.25
2022-10-31T08:25:37.199Z,5.20
2022-10-31T08:28:06.641Z,4.13
2022-10-31T08:30:36.133Z,3.28
2022-10-31T08:33:15.241Z,2.42
2022-10-31T08:35:42.772Z,3.55
2022-10-31T08:38:12.085Z,3.25
2022-10-31T08:40:39.583Z,3.30
2022-10-31T08:43:11.829Z,3.45
2022-10-31T08:45:39.271Z,2.15
2022-10-31T08:48:10.400Z,4.53
2022-10-31T08:53:19.311Z,2.05
2022-10-31T08:55:47.666Z,8.93
2022-10-31T08:58:20.104Z,2.88
2022-10-31T09:00:49.319Z,4.18
2022-10-31T09:03:20.671Z,3.90
2022-10-31T09:05:48.145Z,3.53
2022-10-31T09:08:16.995Z,4.57
2022-10-31T09:10:45.462Z,2.85
2022-10-31T09:13:21.217Z,1.90
2022-10-31T09:15:50.160Z,3.25
2022-10-31T09:18:20.086Z,3.25
2022-10-31T09:20:48.860Z,4.70
2022-10-31T09:23:21.456Z,1.50
2022-10-31T09:25:50.889Z,3.47
2022-10-31T09:28:21.727Z,2.40
2022-10-31T09:30:50.666Z,2.00
2022-10-31T09:33:18.178Z,3.00
2022-10-31T09:35:45.290Z,2.53
2022-10-31T09:38:16.354Z,1.73
2022-10-31T09:41:03.705Z,1.85
2022-10-31T09:43:39.618Z,3.83
2022-10-31T09:46:16.679Z,2.65
2022-10-31T09:49:08.027Z,3.15
2022-10-31T09:51:53.044Z,1.63
2022-10-31T09:54:41.040Z,2.83
2022-10-31T09:57:14.366Z,1.88
2022-10-31T09:59:43.199Z,2.65
2022-10-31T10:02:25.833Z,3.25
2022-10-31T10:05:03.331Z,3.00
2022-10-31T10:07:50.922Z,4.35
2022-10-31T10:10:59.393Z,3.42
2022-10-31T10:13:32.641Z,3.33
2022-10-31T10:16:13.988Z,1.63
2022-10-31T10:18:55.783Z,3.03
2022-10-31T10:21:31.554Z,1.45
2022-10-31T10:24:19.975Z,5.82
2022-10-31T10:27:05.843Z,7.07
2022-10-31T10:29:43.989Z,2.60
2022-10-31T10:32:19.191Z,5.40
2022-10-31T10:34:55.069Z,5.70
2022-10-31T10:37:29.540Z,5.60
2022-10-31T10:40:07.765Z,2.15
2022-10-31T10:42:54.660Z,17.42
2022-10-31T10:45:40.082Z,3.42
2022-10-31T10:48:11.651Z,5.65
2022-10-31T10:50:47.987Z,3.67
2022-10-31T10:53:36.902Z,3.28
2022-10-31T10:56:10.435Z,4.63
2022-10-31T10:58:38.662Z,3.58
2022-10-31T11:04:04.307Z,2.22
2022-10-31T11:06:31.433Z,4.65
2022-10-31T11:08:58.418Z,3.10
2022-10-31T11:11:29.424Z,3.58
2022-10-31T11:14:04.593Z,4.43
2022-10-31T11:16:41.301Z,5.82
2022-10-31T11:19:08.810Z,3.83
2022-10-31T11:21:36.078Z,3.72
2022-10-31T11:24:12.913Z,3.35
2022-10-31T11:26:41.526Z,3.22
2022-10-31T11:29:27.496Z,2.38
2022-10-31T11:31:56.481Z,4.30
2022-10-31T11:34:37.971Z,4.57
2022-10-31T11:37:19.578Z,1.80
2022-10-31T11:39:54.609Z,3.13
2022-10-31T11:42:28.950Z,3.28
2022-10-31T11:44:57.184Z,3.75
2022-10-31T11:47:30.040Z,2.50
2022-10-31T11:49:58.993Z,1.25
2022-10-31T11:52:29.083Z,3.05
2022-10-31T11:54:57.117Z,3.47
2022-10-31T11:57:28.297Z,2.38
2022-10-31T12:02:23.720Z,1.65
2022-10-31T12:05:14.498Z,2.78
2022-10-31T12:07:41.693Z,3.55
2022-10-31T12:10:13.424Z,3.25
2022-10-31T12:13:12.679Z,2.00
2022-10-31T12:15:44.087Z,0.73
2022-10-31T12:18:32.976Z,2.25
2022-10-31T12:21:34.278Z,0.93
2022-10-31T12:24:07.655Z,2.00
2022-10-31T12:27:17.802Z,1.33
2022-10-31T12:29:50.847Z,1.42
2022-10-31T12:32:45.677Z,1.65
2022-10-31T12:35:29.241Z,4.43
2022-10-31T12:38:14.903Z,2.38
2022-10-31T12:41:00.580Z,2.30
2022-10-31T12:44:12.073Z,6.13
2022-10-31T12:49:59.706Z,1.52
2022-10-31T12:52:53.788Z,2.05
2022-10-31T12:55:42.302Z,6.45
2022-10-31T12:58:23.004Z,79.32
2022-10-31T13:00:59.893Z,40.15
2022-10-31T13:03:35.228Z,105.25
2022-10-31T13:06:10.433Z,51.45
2022-10-31T13:08:44.216Z,42.72
2022-10-31T13:11:21.653Z,47.78
2022-10-31T13:13:57.535Z,45.13
2022-10-31T13:16:31.984Z,72.50
2022-10-31T13:19:02.978Z,39.42
2022-10-31T13:21:40.572Z,58.88
2022-10-31T13:24:16.082Z,52.63
2022-10-31T13:26:51.778Z,33.05
2022-10-31T13:29:41.824Z,36.20
2022-10-31T13:32:09.430Z,50.90
2022-10-31T13:34:49.326Z,18.73
2022-10-31T13:37:16.277Z,9.60
2022-10-31T13:39:51.066Z,9.55
2022-10-31T13:42:54.119Z,7.97
2022-10-31T13:45:24.523Z,9.70
2022-10-31T13:48:26.166Z,7.60
2022-10-31T13:51:00.992Z,15.85
2022-10-31T13:53:44.210Z,14.25
2022-10-31T13:56:14.354Z,6.38
2022-10-31T13:58:55.931Z,6.05
2022-10-31T14:01:24.087Z,7.03
2022-10-31T14:04:13.906Z,6.68
2022-10-31T14:06:58.569Z,6.35
2022-10-31T14:09:52.147Z,10.23
2022-10-31T14:12:33.145Z,13.95
2022-10-31T14:15:05.130Z,6.25
2022-10-31T14:17:42.078Z,4.10
2022-10-31T14:20:12.157Z,2.67
2022-10-31T14:22:42.775Z,3.65
2022-10-31T14:25:36.607Z,2.65
2022-10-31T14:28:34.404Z,4.25
2022-10-31T14:31:02.863Z,4.32
2022-10-31T14:33:32.435Z,6.13
2022-10-31T14:36:15.979Z,6.85
2022-10-31T14:38:57.614Z,4.07
2022-10-31T14:41:50.763Z,10.27
2022-10-31T14:44:43.237Z,13.32
2022-10-31T14:47:13.112Z,15.00
2022-10-31T14:49:58.475Z,19.77
2022-10-31T14:52:25.855Z,13.45
2022-10-31T14:54:56.271Z,11.77
2022-10-31T14:57:48.387Z,11.43
2022-10-31T15:00:21.661Z,12.00
2022-10-31T15:02:53.294Z,11.00
2022-10-31T15:05:21.451Z,15.20
2022-10-31T15:07:59.100Z,13.45
2022-10-31T15:10:33.578Z,8.98
2022-10-31T15:13:22.807Z,8.15
2022-10-31T15:15:53.475Z,9.32
2022-10-31T15:18:27.768Z,11.10
2022-10-31T15:20:57.187Z,7.93
2022-10-31T15:23:30.209Z,8.15
2022-10-31T15:26:06.214Z,10.98
2022-10-31T15:28:33.263Z,8.93
2022-10-31T15:31:02.707Z,6.97
2022-10-31T15:33:38.331Z,11.45
2022-10-31T15:36:07.628Z,8.00
2022-10-31T15:38:34.696Z,8.10
2022-10-31T15:41:04.206Z,8.13
2022-10-31T15:43:38.065Z,7.93
2022-10-31T15:46:08.600Z,6.57
2022-10-31T15:48:36.543Z,6.30
2022-10-31T15:51:04.067Z,4.18
2022-10-31T15:53:39.658Z,7.15
2022-10-31T15:56:14.203Z,6.35
2022-10-31T15:58:45.825Z,4.90
2022-10-31T16:01:24.744Z,3.85
2022-10-31T16:04:20.988Z,5.20
2022-10-31T16:07:14.696Z,5.55
2022-10-31T16:09:53.583Z,6.05
2022-10-31T16:12:22.741Z,4.68
2022-10-31T16:14:55.207Z,4.10
2022-10-31T16:17:28.488Z,2.63
2022-10-31T16:20:04.846Z,5.43
2022-10-31T16:22:37.967Z,5.85
2022-10-31T16:25:39.382Z,4.10
2022-10-31T16:31:02.179Z,3.47
2022-10-31T16:33:34.855Z,4.28
2022-10-31T16:36:22.710Z,3.63
2022-10-31T16:38:52.017Z,6.40
2022-10-31T16:41:19.137Z,4.90
2022-10-31T16:43:51.477Z,4.72
2022-10-31T16:46:25.185Z,3.35
2022-10-31T16:48:52.866Z,5.75
2022-10-31T16:51:19.853Z,3.28
2022-10-31T16:53:47.116Z,7.63
2022-10-31T16:56:29.549Z,9.15
2022-10-31T16:58:57.173Z,7.97
2022-10-31T17:01:24.384Z,10.23
2022-10-31T17:03:51.440Z,6.90
2022-10-31T17:06:18.434Z,4.75
2022-10-31T17:08:45.548Z,4.07
2022-10-31T17:11:18.799Z,4.53
2022-10-31T17:13:45.870Z,3.65
2022-10-31T17:16:15.494Z,5.18
2022-10-31T17:18:44.171Z,2.97
2022-10-31T17:21:20.506Z,3.92
2022-10-31T17:23:47.721Z,2.30
2022-10-31T17:26:14.789Z,4.70
2022-10-31T17:28:43.177Z,6.70
2022-10-31T17:31:27.535Z,6.10
2022-10-31T17:34:02.191Z,4.78
2022-10-31T17:36:31.168Z,3.67
2022-10-31T17:38:58.527Z,4.55
2022-10-31T17:41:25.558Z,5.10
2022-10-31T17:44:00.691Z,6.55
2022-10-31T17:46:29.042Z,2.85
2022-10-31T17:48:56.286Z,2.55
2022-10-31T17:51:23.620Z,3.05
2022-10-31T17:53:50.902Z,3.75
2022-10-31T17:56:17.898Z,3.58
2022-10-31T17:58:45.049Z,1.70
2022-10-31T18:01:17.019Z,3.17
2022-10-31T18:03:44.841Z,2.50
2022-10-31T18:06:14.753Z,3.05
2022-10-31T18:08:42.253Z,3.45
2022-10-31T18:11:15.097Z,2.45
2022-10-31T18:16:13.509Z,4.20
2022-10-31T18:18:41.465Z,7.40
2022-10-31T18:21:09.234Z,3.97
2022-10-31T18:23:36.390Z,5.00
2022-10-31T18:26:04.271Z,2.08
2022-10-31T18:28:31.312Z,4.53
2022-10-31T18:31:01.660Z,1.83
2022-10-31T18:33:29.208Z,3.00
2022-10-31T18:35:56.712Z,2.38
2022-10-31T18:38:23.973Z,2.88
2022-10-31T18:40:52.202Z,2.15
2022-10-31T18:43:19.288Z,1.73
2022-10-31T18:45:48.788Z,3.08
2022-10-31T18:48:18.753Z,4.15
2022-10-31T18:50:46.435Z,1.67
2022-10-31T18:53:13.376Z,3.45
2022-10-31T18:55:45.389Z,2.88
2022-10-31T18:58:16.811Z,8.30
2022-10-31T19:00:43.858Z,2.28
2022-10-31T19:03:10.931Z,2.83
2022-10-31T19:05:38.743Z,4.20
2022-10-31T19:08:09.072Z,5.57
2022-10-31T19:10:40.642Z,3.28
2022-10-31T19:13:08.207Z,3.85
2022-10-31T19:15:36.120Z,4.47
2022-10-31T19:18:04.923Z,4.82
2022-10-31T19:20:32.394Z,5.93
2022-10-31T19:22:59.917Z,12.30
2022-10-31T19:25:28.161Z,8.10
2022-10-31T19:27:55.580Z,8.20
2022-10-31T19:30:24.184Z,9.07
2022-10-31T19:32:56.401Z,11.27
2022-10-31T19:35:23.934Z,15.52
2022-10-31T19:37:51.536Z,15.60
2022-10-31T19:40:20.323Z,10.93
2022-10-31T19:42:47.682Z,10.35
2022-10-31T19:45:15.253Z,12.50
2022-10-31T19:47:43.284Z,22.75
2022-10-31T19:50:12.238Z,12.98
2022-10-31T19:52:43.671Z,11.32
2022-10-31T19:55:12.985Z,13.90
2022-10-31T19:58:00.807Z,11.25
2022-10-31T20:00:29.692Z,9.90
2022-10-31T20:02:57.205Z,10.05
2022-10-31T20:05:24.873Z,10.77
2022-10-31T20:07:54.662Z,9.80
2022-10-31T20:10:22.849Z,10.48
2022-10-31T20:12:51.489Z,12.88
2022-10-31T20:15:19.892Z,9.85
2022-10-31T20:17:47.358Z,10.10
2022-10-31T20:20:16.390Z,12.35
2022-10-31T20:22:43.840Z,12.43
2022-10-31T20:25:14.741Z,9.57
2022-10-31T20:27:42.040Z,10.27
2022-10-31T20:30:12.225Z,7.05
2022-10-31T20:32:49.012Z,8.70
2022-10-31T20:35:20.790Z,8.02
2022-10-31T20:37:53.494Z,13.50
2022-10-31T20:40:21.004Z,8.80
2022-10-31T20:42:48.266Z,8.25
2022-10-31T20:45:20.269Z,7.93
2022-10-31T20:47:47.482Z,6.22
2022-10-31T20:50:16.703Z,5.60
2022-10-31T20:52:45.288Z,5.65
2022-10-31T20:55:16.622Z,5.95
2022-10-31T20:57:44.005Z,4.22
2022-10-31T21:00:12.473Z,6.32
2022-10-31T21:02:45.316Z,6.18
2022-10-31T21:05:16.102Z,4.00
2022-10-31T21:07:55.659Z,5.47
2022-10-31T21:10:23.879Z,5.00
2022-10-31T21:12:56.701Z,4.90
2022-10-31T21:15:24.923Z,6.00
2022-10-31T21:17:52.594Z,5.00
2022-10-31T21:20:20.153Z,5.05
2022-10-31T21:22:48.561Z,4.30
2022-10-31T21:25:17.422Z,2.28
2022-10-31T21:27:47.498Z,4.30
2022-10-31T21:30:16.922Z,6.85
2022-10-31T21:32:44.540Z,4.45
2022-10-31T21:35:11.923Z,3.95
2022-10-31T21:37:39.392Z,4.13
2022-10-31T21:40:08.360Z,2.97
2022-10-31T21:42:37.306Z,3.15
2022-10-31T21:45:06.875Z,4.63
2022-10-31T21:47:34.367Z,2.42
2022-10-31T21:50:06.245Z,2.97
2022-10-31T21:52:33.713Z,4.93
2022-10-31T21:55:01.960Z,3.63
2022-10-31T21:57:30.023Z,5.80
2022-10-31T21:59:57.320Z,8.63
2022-10-31T22:02:24.574Z,4.15
2022-10-31T22:04:52.304Z,3.63
2022-10-31T22:07:20.747Z,3.30
2022-10-31T22:09:49.952Z,3.45
2022-10-31T22:12:19.766Z,8.38
2022-10-31T22:14:49.949Z,4.20
2022-10-31T22:17:22.597Z,3.85
2022-10-31T22:19:49.968Z,3.17
2022-10-31T22:22:17.086Z,4.00
2022-10-31T22:24:48.147Z,4.10
2022-10-31T22:29:42.296Z,3.70
2022-10-31T22:32:10.295Z,3.85
2022-10-31T22:34:38.765Z,3.35
2022-10-31T22:37:06.654Z,1.45
2022-10-31T22:39:36.425Z,3.20
2022-10-31T22:42:04.123Z,1.30
2022-10-31T22:44:31.338Z,3.22
2022-10-31T22:46:58.592Z,3.33
2022-10-31T22:49:25.584Z,2.22
2022-10-31T22:51:52.640Z,2.13
2022-10-31T22:54:20.084Z,1.08
2022-10-31T22:56:47.094Z,2.08
2022-10-31T22:59:15.716Z,1.95
2022-10-31T23:01:46.038Z,1.45
2022-10-31T23:04:16.611Z,1.85
2022-10-31T23:06:45.184Z,2.80
2022-10-31T23:09:15.185Z,2.50
2022-10-31T23:11:42.306Z,2.55
2022-10-31T23:14:18.944Z,2.78
2022-10-31T23:16:55.770Z,2.50
2022-10-31T23:19:30.436Z,3.33
2022-10-31T23:22:03.355Z,2.00
2022-10-31T23:24:37.898Z,2.83
2022-10-31T23:27:10.239Z,2.28
2022-10-31T23:29:47.736Z,2.03
2022-10-31T23:32:21.131Z,1.85
2022-10-31T23:34:49.945Z,1.75
2022-10-31T23:37:18.552Z,2.45
2022-10-31T23:39:45.850Z,4.82
2022-10-31T23:42:14.145Z,2.33
2022-10-31T23:44:41.048Z,3.28
2022-10-31T23:47:08.681Z,2.72
2022-10-31T23:49:35.858Z,1.40
2022-10-31T23:52:03.930Z,4.20
2022-10-31T23:54:31.338Z,2.10
2022-10-31T23:56:59.111Z,2.33
2022-10-31T23:59:26.526Z,2.60
